Time,TemperatureF,DewpointF,PressureIn,WindDirection,WindDirectionDegrees,WindSpeedMPH,WindSpeedGustMPH,Humidity,HourlyPrecipIn,Conditions,Clouds,dailyrainin,SoftwareType,DateUTC
2013-07-12 00:04:00,57.6,55.5,30.09,West,270,2.2,6.0,93,0.00,,,0.00,pywws,2013-07-11 22:04:00,
2013-07-12 00:14:00,57.4,55.4,30.09,West,270,0.7,3.8,93,0.00,,,0.00,pywws,2013-07-11 22:14:00,
2013-07-12 00:24:00,57.4,55.4,30.08,West,270,0.0,2.2,93,0.00,,,0.00,pywws,2013-07-11 22:24:00,
2013-07-12 00:34:00,57.2,55.5,30.08,West,270,0.7,3.1,94,0.00,,,0.00,pywws,2013-07-11 22:34:00,
2013-07-12 00:44:00,57.2,55.5,30.08,West,270,0.7,3.8,94,0.00,,,0.00,pywws,2013-07-11 22:44:00,
2013-07-12 00:54:00,57.0,55.3,30.08,West,270,2.2,3.8,94,0.00,,,0.00,pywws,2013-07-11 22:54:00,
2013-07-12 01:04:00,57.0,55.3,30.08,West,270,0.7,3.1,94,0.00,,,0.00,pywws,2013-07-11 23:04:00,
2013-07-12 01:14:00,56.8,55.4,30.08,West,270,1.6,3.1,95,0.00,,,0.00,pywws,2013-07-11 23:14:00,
2013-07-12 01:24:00,56.7,55.2,30.08,West,270,1.6,3.8,95,0.00,,,0.00,pywws,2013-07-11 23:24:00,
2013-07-12 01:34:00,56.8,55.4,30.08,West,270,0.0,3.1,95,0.00,,,0.00,pywws,2013-07-11 23:34:00,
2013-07-12 01:44:00,56.8,55.4,30.08,West,270,2.2,3.8,95,0.00,,,0.00,pywws,2013-07-11 23:44:00,
2013-07-12 01:54:00,56.8,55.7,30.07,West,270,1.6,4.5,96,0.01,,,0.01,pywws,2013-07-11 23:54:00,
2013-07-12 02:14:00,56.7,55.5,30.07,West,270,0.7,3.1,96,0.01,,,0.01,pywws,2013-07-12 00:14:00,
2013-07-12 02:24:00,56.7,55.5,30.07,West,270,3.1,5.4,96,0.01,,,0.01,pywws,2013-07-12 00:24:00,
2013-07-12 02:34:00,56.7,55.5,30.07,West,270,2.2,6.0,96,0.01,,,0.01,pywws,2013-07-12 00:34:00,
2013-07-12 02:44:00,56.7,55.5,30.07,West,270,1.6,4.5,96,0.01,,,0.01,pywws,2013-07-12 00:44:00,
2013-07-12 02:54:00,56.7,55.8,30.07,West,270,0.7,3.8,97,0.00,,,0.01,pywws,2013-07-12 00:54:00,
2013-07-12 03:04:00,56.7,55.8,30.07,West,270,0.7,2.2,97,0.00,,,0.01,pywws,2013-07-12 01:04:00,
2013-07-12 03:14:00,56.7,55.8,30.07,West,270,1.6,6.9,97,0.00,,,0.01,pywws,2013-07-12 01:14:00,
2013-07-12 03:24:00,56.7,55.8,30.07,West,270,2.2,4.5,97,0.00,,,0.01,pywws,2013-07-12 01:24:00,
2013-07-12 03:34:00,56.7,55.8,30.07,West,270,3.8,8.3,97,0.00,,,0.01,pywws,2013-07-12 01:34:00,
2013-07-12 03:44:00,56.7,55.8,30.07,West,270,3.8,6.9,97,0.00,,,0.01,pywws,2013-07-12 01:44:00,
2013-07-12 03:54:00,56.7,55.8,30.07,West,270,4.5,8.3,97,0.00,,,0.01,pywws,2013-07-12 01:54:00,
2013-07-12 04:04:00,56.5,55.6,30.06,West,270,2.2,4.5,97,0.00,,,0.01,pywws,2013-07-12 02:04:00,
2013-07-12 04:14:00,56.5,55.6,30.07,WSW,248,3.1,6.0,97,0.00,,,0.01,pywws,2013-07-12 02:14:00,
2013-07-12 04:24:00,56.5,55.9,30.06,WSW,248,0.0,1.6,98,0.00,,,0.01,pywws,2013-07-12 02:24:00,
2013-07-12 04:34:00,56.5,55.9,30.07,WSW,248,0.7,3.8,98,0.00,,,0.01,pywws,2013-07-12 02:34:00,
2013-07-12 04:44:00,56.3,55.7,30.07,WSW,248,2.2,4.5,98,0.00,,,0.01,pywws,2013-07-12 02:44:00,
2013-07-12 04:54:00,56.5,55.9,30.07,WSW,248,0.7,3.8,98,0.00,,,0.01,pywws,2013-07-12 02:54:00,
2013-07-12 05:04:00,56.5,55.9,30.07,WSW,248,1.6,3.1,98,0.00,,,0.01,pywws,2013-07-12 03:04:00,
2013-07-12 05:14:00,56.7,56.1,30.07,WSW,248,0.0,0.7,98,0.00,,,0.01,pywws,2013-07-12 03:14:00,
2013-07-12 05:24:00,56.5,55.9,30.07,WSW,248,0.7,2.2,98,0.00,,,0.01,pywws,2013-07-12 03:24:00,
2013-07-12 05:34:00,56.5,55.9,30.07,WSW,248,0.0,0.7,98,0.00,,,0.01,pywws,2013-07-12 03:34:00,
2013-07-12 05:44:00,56.3,55.7,30.07,WSW,248,0.7,2.2,98,0.00,,,0.01,pywws,2013-07-12 03:44:00,
2013-07-12 05:54:00,56.3,55.7,30.07,WSW,248,0.0,3.1,98,0.00,,,0.01,pywws,2013-07-12 03:54:00,
2013-07-12 06:04:00,56.5,55.9,30.07,WSW,248,0.0,1.6,98,0.00,,,0.01,pywws,2013-07-12 04:04:00,
2013-07-12 06:14:00,56.7,56.1,30.07,WSW,248,2.2,3.8,98,0.00,,,0.01,pywws,2013-07-12 04:14:00,
2013-07-12 06:24:00,56.8,56.3,30.07,WSW,248,1.6,3.8,98,0.00,,,0.01,pywws,2013-07-12 04:24:00,
2013-07-12 06:34:00,56.8,56.3,30.07,WSW,248,3.8,6.9,98,0.00,,,0.01,pywws,2013-07-12 04:34:00,
2013-07-12 06:44:00,56.7,56.1,30.07,WSW,248,2.2,5.4,98,0.00,,,0.01,pywws,2013-07-12 04:44:00,
2013-07-12 06:54:00,56.8,56.3,30.07,WSW,248,3.8,6.0,98,0.00,,,0.01,pywws,2013-07-12 04:54:00,
2013-07-12 07:04:00,56.8,56.0,30.07,WSW,248,3.8,8.3,97,0.00,,,0.01,pywws,2013-07-12 05:04:00,
2013-07-12 07:14:00,56.8,56.0,30.08,WSW,248,3.1,7.6,97,0.00,,,0.01,pywws,2013-07-12 05:14:00,
2013-07-12 07:24:00,57.0,56.2,30.08,WSW,248,2.2,5.4,97,0.00,,,0.01,pywws,2013-07-12 05:24:00,
2013-07-12 07:34:00,57.2,56.4,30.08,WSW,248,0.7,3.1,97,0.00,,,0.01,pywws,2013-07-12 05:34:00,
2013-07-12 07:44:00,57.4,56.5,30.08,WSW,248,3.1,5.4,97,0.00,,,0.01,pywws,2013-07-12 05:44:00,
2013-07-12 07:54:00,57.7,56.9,30.08,WSW,248,0.0,2.2,97,0.00,,,0.01,pywws,2013-07-12 05:54:00,
2013-07-12 08:04:00,57.9,56.8,30.09,WSW,248,2.2,5.4,96,0.00,,,0.01,pywws,2013-07-12 06:04:00,
2013-07-12 08:14:00,58.6,57.5,30.09,WSW,248,2.2,5.4,96,0.00,,,0.01,pywws,2013-07-12 06:14:00,
2013-07-12 08:24:00,58.8,57.7,30.09,WSW,248,3.1,6.0,96,0.00,,,0.01,pywws,2013-07-12 06:24:00,
2013-07-12 08:34:00,59.2,57.7,30.09,WSW,248,2.2,5.4,95,0.00,,,0.01,pywws,2013-07-12 06:34:00,
2013-07-12 08:44:00,60.3,58.8,30.09,WSW,248,3.8,6.9,95,0.00,,,0.01,pywws,2013-07-12 06:44:00,
2013-07-12 08:54:00,61.3,59.6,30.08,WSW,248,3.1,5.4,94,0.00,,,0.01,pywws,2013-07-12 06:54:00,
2013-07-12 09:04:00,62.4,60.4,30.09,WSW,248,3.8,8.3,93,0.00,,,0.01,pywws,2013-07-12 07:04:00,
2013-07-12 09:14:00,65.8,63.1,30.09,WSW,248,1.6,3.8,91,0.00,,,0.01,pywws,2013-07-12 07:14:00,
2013-07-12 09:24:00,67.1,62.4,30.09,WSW,248,2.2,6.9,85,0.00,,,0.01,pywws,2013-07-12 07:24:00,
2013-07-12 09:34:00,65.7,60.7,30.09,West,270,2.2,5.4,84,0.00,,,0.01,pywws,2013-07-12 07:34:00,
2013-07-12 09:44:00,64.9,59.6,30.09,WSW,248,6.9,13.0,83,0.00,,,0.01,pywws,2013-07-12 07:44:00,
2013-07-12 09:54:00,65.8,59.8,30.10,WSW,248,5.4,9.8,81,0.00,,,0.01,pywws,2013-07-12 07:54:00,
2013-07-12 10:04:00,66.0,59.7,30.10,WSW,248,3.1,9.8,80,0.00,,,0.01,pywws,2013-07-12 08:04:00,
2013-07-12 10:14:00,67.1,60.0,30.10,SW,225,11.4,15.9,78,0.00,,,0.01,pywws,2013-07-12 08:14:00,
2013-07-12 10:24:00,67.3,59.8,30.10,SW,225,3.8,7.6,77,0.00,,,0.01,pywws,2013-07-12 08:24:00,
2013-07-12 10:34:00,67.3,59.8,30.11,SW,225,4.5,6.9,77,0.00,,,0.01,pywws,2013-07-12 08:34:00,
2013-07-12 10:44:00,68.5,60.3,30.11,SW,225,6.0,7.6,75,0.00,,,0.01,pywws,2013-07-12 08:44:00,
2013-07-12 10:54:00,67.8,59.6,30.11,SW,225,0.7,2.2,75,0.00,,,0.01,pywws,2013-07-12 08:54:00,
2013-07-12 11:04:00,68.0,59.8,30.11,SW,225,5.4,7.6,75,0.00,,,0.01,pywws,2013-07-12 09:04:00,
2013-07-12 11:14:00,66.4,58.6,30.11,SW,225,3.8,7.6,76,0.00,,,0.01,pywws,2013-07-12 09:14:00,
2013-07-12 11:24:00,64.8,57.4,30.12,SW,225,6.0,15.2,77,0.00,,,0.01,pywws,2013-07-12 09:24:00,
2013-07-12 11:34:00,63.1,56.5,30.11,SW,225,5.4,8.3,79,0.00,,,0.01,pywws,2013-07-12 09:34:00,
2013-07-12 11:44:00,62.2,56.3,30.11,WSW,248,4.5,7.6,81,0.00,,,0.01,pywws,2013-07-12 09:44:00,
2013-07-12 11:54:00,62.1,56.8,30.11,WSW,248,3.1,6.9,83,0.00,,,0.01,pywws,2013-07-12 09:54:00,
2013-07-12 12:04:00,61.9,56.7,30.11,SW,225,6.9,11.4,83,0.01,,,0.02,pywws,2013-07-12 10:04:00,
2013-07-12 12:14:00,61.3,56.8,30.11,SW,225,0.7,3.8,85,0.04,,,0.05,pywws,2013-07-12 10:14:00,
2013-07-12 12:24:00,61.2,56.9,30.11,SW,225,0.7,3.1,86,0.04,,,0.05,pywws,2013-07-12 10:24:00,
2013-07-12 12:34:00,61.3,57.4,30.11,SW,225,0.7,1.6,87,0.04,,,0.05,pywws,2013-07-12 10:34:00,
2013-07-12 12:44:00,61.3,57.4,30.11,SW,225,0.0,0.7,87,0.04,,,0.05,pywws,2013-07-12 10:44:00,
2013-07-12 12:54:00,61.3,57.8,30.11,SW,225,3.8,8.3,88,0.04,,,0.05,pywws,2013-07-12 10:54:00,
2013-07-12 13:04:00,61.2,57.6,30.11,SW,225,3.1,4.5,88,0.02,,,0.05,pywws,2013-07-12 11:04:00,
2013-07-12 13:14:00,61.5,57.9,30.12,SW,225,2.2,6.0,88,0.00,,,0.05,pywws,2013-07-12 11:14:00,
2013-07-12 13:24:00,61.9,58.3,30.11,SW,225,4.5,9.2,88,0.00,,,0.05,pywws,2013-07-12 11:24:00,
2013-07-12 13:34:00,62.6,59.0,30.11,SW,225,2.2,3.8,88,0.00,,,0.05,pywws,2013-07-12 11:34:00,
2013-07-12 13:44:00,63.9,59.9,30.11,SW,225,1.6,3.8,87,0.00,,,0.05,pywws,2013-07-12 11:44:00,
2013-07-12 13:54:00,65.1,60.5,30.11,SW,225,1.6,3.1,85,0.00,,,0.05,pywws,2013-07-12 11:54:00,
2013-07-12 14:04:00,65.7,60.7,30.11,SW,225,3.1,8.3,84,0.00,,,0.05,pywws,2013-07-12 12:04:00,
2013-07-12 14:14:00,66.2,59.5,30.11,WSW,248,8.3,14.5,79,0.01,,,0.06,pywws,2013-07-12 12:14:00,
2013-07-12 14:24:00,67.1,60.4,30.11,West,270,6.9,10.7,79,0.01,,,0.06,pywws,2013-07-12 12:24:00,
2013-07-12 14:34:00,67.8,60.3,30.11,West,270,5.4,9.2,77,0.01,,,0.06,pywws,2013-07-12 12:34:00,
2013-07-12 14:44:00,68.2,59.9,30.11,West,270,9.2,13.6,75,0.01,,,0.06,pywws,2013-07-12 12:44:00,
2013-07-12 14:54:00,68.0,59.8,30.11,West,270,2.2,5.4,75,0.01,,,0.06,pywws,2013-07-12 12:54:00,
2013-07-12 15:04:00,67.8,59.6,30.11,West,270,5.4,9.8,75,0.01,,,0.06,pywws,2013-07-12 13:04:00,
2013-07-12 15:14:00,69.1,60.4,30.11,West,270,6.0,9.8,74,0.00,,,0.06,pywws,2013-07-12 13:14:00,
2013-07-12 15:24:00,69.3,60.2,30.11,West,270,8.3,13.0,73,0.00,,,0.06,pywws,2013-07-12 13:24:00,
2013-07-12 15:34:00,69.8,60.7,30.10,West,270,3.1,6.0,73,0.00,,,0.06,pywws,2013-07-12 13:34:00,
2013-07-12 15:44:00,70.5,60.7,30.11,West,270,2.2,4.5,71,0.00,,,0.06,pywws,2013-07-12 13:44:00,
2013-07-12 15:54:00,70.3,60.1,30.10,West,270,3.1,5.4,70,0.00,,,0.06,pywws,2013-07-12 13:54:00,
2013-07-12 16:04:00,70.5,59.4,30.10,West,270,6.0,10.7,68,0.00,,,0.06,pywws,2013-07-12 14:04:00,
2013-07-12 16:14:00,70.9,59.8,30.11,West,270,2.2,6.9,68,0.00,,,0.06,pywws,2013-07-12 14:14:00,
2013-07-12 16:24:00,71.4,59.9,30.11,West,270,6.0,10.7,67,0.00,,,0.06,pywws,2013-07-12 14:24:00,
2013-07-12 16:34:00,70.7,59.2,30.11,West,270,3.8,8.3,67,0.00,,,0.06,pywws,2013-07-12 14:34:00,
2013-07-12 16:44:00,70.3,59.3,30.11,West,270,3.1,6.0,68,0.00,,,0.06,pywws,2013-07-12 14:44:00,
2013-07-12 16:54:00,71.2,60.1,30.10,West,270,3.1,6.0,68,0.00,,,0.06,pywws,2013-07-12 14:54:00,
2013-07-12 17:04:00,71.6,60.0,30.11,West,270,2.2,6.0,67,0.00,,,0.06,pywws,2013-07-12 15:04:00,
2013-07-12 17:14:00,70.5,58.6,30.11,West,270,1.6,3.8,66,0.00,,,0.06,pywws,2013-07-12 15:14:00,
2013-07-12 17:24:00,69.4,58.4,30.10,West,270,3.8,7.6,68,0.00,,,0.06,pywws,2013-07-12 15:24:00,
2013-07-12 17:34:00,68.9,57.9,30.10,West,270,4.5,10.7,68,0.00,,,0.06,pywws,2013-07-12 15:34:00,
2013-07-12 17:44:00,68.4,59.0,30.11,West,270,5.4,10.7,72,0.01,,,0.07,pywws,2013-07-12 15:44:00,
2013-07-12 17:54:00,65.8,58.1,30.11,West,270,1.6,3.8,76,0.05,,,0.11,pywws,2013-07-12 15:54:00,
2013-07-12 18:04:00,64.9,57.9,30.11,West,270,2.2,3.8,78,0.05,,,0.11,pywws,2013-07-12 16:04:00,
2013-07-12 18:14:00,64.6,58.6,30.11,West,270,0.7,1.6,81,0.05,,,0.11,pywws,2013-07-12 16:14:00,
2013-07-12 18:24:00,64.8,58.8,30.11,West,270,2.2,3.8,81,0.05,,,0.11,pywws,2013-07-12 16:24:00,
2013-07-12 18:34:00,65.1,59.5,30.11,West,270,0.7,3.8,82,0.05,,,0.11,pywws,2013-07-12 16:34:00,
2013-07-12 18:44:00,64.8,59.1,30.11,West,270,1.6,3.8,82,0.04,,,0.11,pywws,2013-07-12 16:44:00,
2013-07-12 18:54:00,64.4,58.8,30.11,West,270,0.7,3.1,82,0.00,,,0.11,pywws,2013-07-12 16:54:00,
2013-07-12 19:04:00,64.4,59.1,30.11,West,270,1.6,2.2,83,0.00,,,0.11,pywws,2013-07-12 17:04:00,
2013-07-12 19:14:00,64.4,59.5,30.11,West,270,2.2,4.5,84,0.00,,,0.11,pywws,2013-07-12 17:14:00,
2013-07-12 19:24:00,64.4,59.5,30.11,West,270,0.0,1.6,84,0.00,,,0.11,pywws,2013-07-12 17:24:00,
2013-07-12 19:34:00,64.0,59.1,30.11,West,270,0.7,3.1,84,0.00,,,0.11,pywws,2013-07-12 17:34:00,
2013-07-12 19:44:00,63.9,59.3,30.11,West,270,1.6,3.1,85,0.00,,,0.11,pywws,2013-07-12 17:44:00,
2013-07-12 19:54:00,63.7,59.1,30.11,West,270,0.0,0.7,85,0.00,,,0.11,pywws,2013-07-12 17:54:00,
2013-07-12 20:04:00,63.7,59.1,30.12,West,270,0.7,1.6,85,0.00,,,0.11,pywws,2013-07-12 18:04:00,
2013-07-12 20:14:00,63.3,59.1,30.12,West,270,0.0,0.7,86,0.00,,,0.11,pywws,2013-07-12 18:14:00,
2013-07-12 20:24:00,63.1,58.9,30.12,West,270,0.0,0.0,86,0.00,,,0.11,pywws,2013-07-12 18:24:00,
2013-07-12 20:34:00,63.0,58.7,30.12,West,270,0.0,0.0,86,0.00,,,0.11,pywws,2013-07-12 18:34:00,
2013-07-12 20:44:00,63.0,59.0,30.12,West,270,0.0,0.0,87,0.00,,,0.11,pywws,2013-07-12 18:44:00,
2013-07-12 20:54:00,62.8,58.8,30.12,West,270,0.0,0.7,87,0.00,,,0.11,pywws,2013-07-12 18:54:00,
2013-07-12 21:04:00,62.8,58.8,30.12,West,270,0.0,0.7,87,0.00,,,0.11,pywws,2013-07-12 19:04:00,
2013-07-12 21:14:00,62.4,58.8,30.12,West,270,0.0,0.0,88,0.00,,,0.11,pywws,2013-07-12 19:14:00,
2013-07-12 21:34:00,62.1,58.5,30.13,West,270,0.0,0.0,88,0.00,,,0.11,pywws,2013-07-12 19:34:00,
2013-07-12 21:44:00,61.9,58.6,30.12,West,270,0.7,3.1,89,0.00,,,0.11,pywws,2013-07-12 19:44:00,
2013-07-12 21:54:00,61.7,58.4,30.13,West,270,0.0,1.6,89,0.00,,,0.11,pywws,2013-07-12 19:54:00,
2013-07-12 22:04:00,61.7,58.4,30.13,West,270,1.6,2.2,89,0.00,,,0.11,pywws,2013-07-12 20:04:00,
2013-07-12 22:14:00,61.7,58.4,30.13,West,270,0.0,1.6,89,0.00,,,0.11,pywws,2013-07-12 20:14:00,
2013-07-12 22:24:00,61.5,58.2,30.13,West,270,2.2,5.4,89,0.00,,,0.11,pywws,2013-07-12 20:24:00,
2013-07-12 22:34:00,61.7,58.4,30.13,West,270,0.7,3.1,89,0.00,,,0.11,pywws,2013-07-12 20:34:00,
2013-07-12 22:44:00,61.5,58.2,30.13,West,270,0.0,1.6,89,0.00,,,0.11,pywws,2013-07-12 20:44:00,
2013-07-12 22:54:00,61.3,58.1,30.12,West,270,0.7,2.2,89,0.00,,,0.11,pywws,2013-07-12 20:54:00,
2013-07-12 23:04:00,61.3,58.1,30.13,West,270,0.0,3.1,89,0.00,,,0.11,pywws,2013-07-12 21:04:00,
2013-07-12 23:14:00,61.2,57.9,30.13,West,270,0.7,3.1,89,0.00,,,0.11,pywws,2013-07-12 21:14:00,
2013-07-12 23:24:00,61.0,57.7,30.13,West,270,0.0,1.6,89,0.00,,,0.11,pywws,2013-07-12 21:24:00,
2013-07-12 23:34:00,60.8,57.8,30.13,West,270,0.7,3.1,90,0.00,,,0.11,pywws,2013-07-12 21:34:00,
2013-07-12 23:44:00,60.8,57.8,30.13,West,270,0.7,2.2,90,0.00,,,0.11,pywws,2013-07-12 21:44:00,
2013-07-12 23:54:00,60.6,57.7,30.13,West,270,0.0,0.7,90,0.00,,,0.11,pywws,2013-07-12 21:54:00,